sensor_id;sensor_type;location;lat;lon;timestamp;P1;durP1;ratioP1;P2;durP2;ratioP2
60472;SDS011;46318;52.716;6.444;2022-09-09T00:07:55;6.20;;;5.28;;
60472;SDS011;46318;52.716;6.444;2022-09-09T00:16:04;6.13;;;5.38;;
60472;SDS011;46318;52.716;6.444;2022-09-09T00:24:41;9.05;;;5.90;;
60472;SDS011;46318;52.716;6.444;2022-09-09T00:32:48;8.55;;;5.90;;
60472;SDS011;46318;52.716;6.444;2022-09-09T00:35:37;7.95;;;6.35;;
60472;SDS011;46318;52.716;6.444;2022-09-09T00:38:12;8.77;;;6.00;;
60472;SDS011;46318;52.716;6.444;2022-09-09T00:40:53;8.38;;;6.13;;
60472;SDS011;46318;52.716;6.444;2022-09-09T00:49:26;6.53;;;5.88;;
60472;SDS011;46318;52.716;6.444;2022-09-09T00:52:25;6.38;;;5.78;;
60472;SDS011;46318;52.716;6.444;2022-09-09T00:57:40;11.27;;;6.53;;
60472;SDS011;46318;52.716;6.444;2022-09-09T01:03:19;7.80;;;6.38;;
60472;SDS011;46318;52.716;6.444;2022-09-09T01:12:38;8.65;;;5.97;;
60472;SDS011;46318;52.716;6.444;2022-09-09T01:14:49;6.68;;;5.60;;
60472;SDS011;46318;52.716;6.444;2022-09-09T01:17:46;8.60;;;6.03;;
60472;SDS011;46318;52.716;6.444;2022-09-09T01:20:30;11.02;;;6.30;;
60472;SDS011;46318;52.716;6.444;2022-09-09T01:28:51;11.00;;;5.22;;
60472;SDS011;46318;52.716;6.444;2022-09-09T01:31:36;7.80;;;4.30;;
60472;SDS011;46318;52.716;6.444;2022-09-09T01:34:10;8.15;;;4.95;;
60472;SDS011;46318;52.716;6.444;2022-09-09T01:39:07;8.63;;;5.50;;
60472;SDS011;46318;52.716;6.444;2022-09-09T01:41:33;5.60;;;4.80;;
60472;SDS011;46318;52.716;6.444;2022-09-09T01:43:59;7.55;;;5.00;;
60472;SDS011;46318;52.716;6.444;2022-09-09T01:46:25;5.93;;;4.53;;
60472;SDS011;46318;52.716;6.444;2022-09-09T01:51:59;10.05;;;5.32;;
60472;SDS011;46318;52.716;6.444;2022-09-09T01:54:43;7.32;;;4.88;;
60472;SDS011;46318;52.716;6.444;2022-09-09T01:57:12;7.93;;;4.85;;
60472;SDS011;46318;52.716;6.444;2022-09-09T02:05:19;6.43;;;5.25;;
60472;SDS011;46318;52.716;6.444;2022-09-09T02:08:17;8.90;;;6.07;;
60472;SDS011;46318;52.716;6.444;2022-09-09T02:10:54;6.50;;;5.70;;
60472;SDS011;46318;52.716;6.444;2022-09-09T02:13:29;7.50;;;5.80;;
60472;SDS011;46318;52.716;6.444;2022-09-09T02:16:07;6.72;;;5.60;;
60472;SDS011;46318;52.716;6.444;2022-09-09T02:18:48;7.82;;;6.05;;
60472;SDS011;46318;52.716;6.444;2022-09-09T02:21:30;8.15;;;5.93;;
60472;SDS011;46318;52.716;6.444;2022-09-09T02:23:59;7.05;;;6.35;;
60472;SDS011;46318;52.716;6.444;2022-09-09T02:28:59;7.47;;;6.13;;
60472;SDS011;46318;52.716;6.444;2022-09-09T02:31:30;7.95;;;5.82;;
60472;SDS011;46318;52.716;6.444;2022-09-09T02:34:01;10.20;;;6.10;;
60472;SDS011;46318;52.716;6.444;2022-09-09T02:36:30;7.07;;;6.35;;
60472;SDS011;46318;52.716;6.444;2022-09-09T02:38:58;11.82;;;6.90;;
60472;SDS011;46318;52.716;6.444;2022-09-09T02:41:35;7.07;;;6.32;;
60472;SDS011;46318;52.716;6.444;2022-09-09T02:44:19;8.93;;;7.30;;
60472;SDS011;46318;52.716;6.444;2022-09-09T02:46:55;8.13;;;7.32;;
60472;SDS011;46318;52.716;6.444;2022-09-09T02:58:31;9.93;;;8.70;;
60472;SDS011;46318;52.716;6.444;2022-09-09T03:00:58;8.80;;;7.78;;
60472;SDS011;46318;52.716;6.444;2022-09-09T03:03:26;8.88;;;8.00;;
60472;SDS011;46318;52.716;6.444;2022-09-09T03:05:52;9.82;;;8.70;;
60472;SDS011;46318;52.716;6.444;2022-09-09T03:08:17;9.80;;;8.77;;
60472;SDS011;46318;52.716;6.444;2022-09-09T03:10:43;9.20;;;8.30;;
60472;SDS011;46318;52.716;6.444;2022-09-09T03:13:10;8.52;;;7.57;;
60472;SDS011;46318;52.716;6.444;2022-09-09T03:15:37;10.07;;;8.43;;
60472;SDS011;46318;52.716;6.444;2022-09-09T03:18:03;10.10;;;8.98;;
60472;SDS011;46318;52.716;6.444;2022-09-09T03:20:29;9.15;;;8.15;;
60472;SDS011;46318;52.716;6.444;2022-09-09T03:22:56;9.13;;;8.20;;
60472;SDS011;46318;52.716;6.444;2022-09-09T03:25:22;10.80;;;8.57;;
60472;SDS011;46318;52.716;6.444;2022-09-09T03:27:49;9.45;;;7.82;;
60472;SDS011;46318;52.716;6.444;2022-09-09T03:30:18;8.20;;;7.18;;
60472;SDS011;46318;52.716;6.444;2022-09-09T03:32:44;11.32;;;7.38;;
60472;SDS011;46318;52.716;6.444;2022-09-09T03:35:09;7.80;;;7.03;;
60472;SDS011;46318;52.716;6.444;2022-09-09T03:37:35;9.35;;;7.30;;
60472;SDS011;46318;52.716;6.444;2022-09-09T03:40:01;8.25;;;7.43;;
60472;SDS011;46318;52.716;6.444;2022-09-09T03:42:27;8.38;;;7.05;;
60472;SDS011;46318;52.716;6.444;2022-09-09T03:44:53;8.35;;;7.28;;
60472;SDS011;46318;52.716;6.444;2022-09-09T03:47:20;9.57;;;7.40;;
60472;SDS011;46318;52.716;6.444;2022-09-09T03:49:46;8.20;;;7.40;;
60472;SDS011;46318;52.716;6.444;2022-09-09T03:52:13;8.25;;;7.55;;
60472;SDS011;46318;52.716;6.444;2022-09-09T03:54:40;11.95;;;8.23;;
60472;SDS011;46318;52.716;6.444;2022-09-09T03:57:07;8.98;;;8.07;;
60472;SDS011;46318;52.716;6.444;2022-09-09T03:59:36;9.23;;;8.25;;
60472;SDS011;46318;52.716;6.444;2022-09-09T04:02:03;9.57;;;7.88;;
60472;SDS011;46318;52.716;6.444;2022-09-09T04:04:29;10.38;;;7.85;;
60472;SDS011;46318;52.716;6.444;2022-09-09T04:06:55;10.40;;;9.07;;
60472;SDS011;46318;52.716;6.444;2022-09-09T04:09:21;11.35;;;9.25;;
60472;SDS011;46318;52.716;6.444;2022-09-09T04:11:46;9.90;;;8.95;;
60472;SDS011;46318;52.716;6.444;2022-09-09T04:14:12;9.80;;;8.80;;
60472;SDS011;46318;52.716;6.444;2022-09-09T04:16:38;14.00;;;10.52;;
60472;SDS011;46318;52.716;6.444;2022-09-09T04:19:04;10.45;;;9.35;;
60472;SDS011;46318;52.716;6.444;2022-09-09T04:21:31;10.93;;;9.82;;
60472;SDS011;46318;52.716;6.444;2022-09-09T04:23:57;11.07;;;9.98;;
60472;SDS011;46318;52.716;6.444;2022-09-09T04:26:23;11.77;;;10.68;;
60472;SDS011;46318;52.716;6.444;2022-09-09T04:28:49;10.95;;;9.85;;
60472;SDS011;46318;52.716;6.444;2022-09-09T04:31:17;12.48;;;10.80;;
60472;SDS011;46318;52.716;6.444;2022-09-09T04:33:48;11.02;;;9.80;;
60472;SDS011;46318;52.716;6.444;2022-09-09T04:36:15;11.50;;;10.40;;
60472;SDS011;46318;52.716;6.444;2022-09-09T04:38:44;11.82;;;9.88;;
60472;SDS011;46318;52.716;6.444;2022-09-09T04:41:11;13.25;;;11.02;;
60472;SDS011;46318;52.716;6.444;2022-09-09T04:43:38;10.70;;;9.70;;
60472;SDS011;46318;52.716;6.444;2022-09-09T04:46:05;11.98;;;10.77;;
60472;SDS011;46318;52.716;6.444;2022-09-09T04:48:31;11.88;;;10.57;;
60472;SDS011;46318;52.716;6.444;2022-09-09T04:51:01;12.10;;;10.70;;
60472;SDS011;46318;52.716;6.444;2022-09-09T04:53:29;12.95;;;11.18;;
60472;SDS011;46318;52.716;6.444;2022-09-09T04:56:03;12.35;;;11.10;;
60472;SDS011;46318;52.716;6.444;2022-09-09T04:58:36;11.80;;;10.50;;
60472;SDS011;46318;52.716;6.444;2022-09-09T05:01:07;10.85;;;9.77;;
60472;SDS011;46318;52.716;6.444;2022-09-09T05:03:43;12.80;;;11.05;;
60472;SDS011;46318;52.716;6.444;2022-09-09T05:06:19;12.32;;;9.95;;
60472;SDS011;46318;52.716;6.444;2022-09-09T05:08:46;12.90;;;10.50;;
60472;SDS011;46318;52.716;6.444;2022-09-09T05:11:14;11.50;;;10.43;;
60472;SDS011;46318;52.716;6.444;2022-09-09T05:13:55;11.20;;;10.10;;
60472;SDS011;46318;52.716;6.444;2022-09-09T05:16:23;10.65;;;9.63;;
60472;SDS011;46318;52.716;6.444;2022-09-09T05:18:49;11.18;;;10.07;;
60472;SDS011;46318;52.716;6.444;2022-09-09T05:21:16;12.10;;;10.73;;
60472;SDS011;46318;52.716;6.444;2022-09-09T05:23:44;10.15;;;9.20;;
60472;SDS011;46318;52.716;6.444;2022-09-09T05:26:12;11.75;;;10.57;;
60472;SDS011;46318;52.716;6.444;2022-09-09T05:28:41;12.05;;;10.15;;
60472;SDS011;46318;52.716;6.444;2022-09-09T05:31:07;10.88;;;9.77;;
60472;SDS011;46318;52.716;6.444;2022-09-09T05:33:36;10.82;;;9.52;;
60472;SDS011;46318;52.716;6.444;2022-09-09T05:36:06;11.07;;;9.98;;
60472;SDS011;46318;52.716;6.444;2022-09-09T05:38:40;10.98;;;9.90;;
60472;SDS011;46318;52.716;6.444;2022-09-09T05:41:07;11.98;;;10.85;;
60472;SDS011;46318;52.716;6.444;2022-09-09T05:43:33;10.63;;;9.63;;
60472;SDS011;46318;52.716;6.444;2022-09-09T05:46:13;10.57;;;9.57;;
60472;SDS011;46318;52.716;6.444;2022-09-09T05:48:43;11.50;;;10.30;;
60472;SDS011;46318;52.716;6.444;2022-09-09T05:51:12;12.02;;;10.77;;
60472;SDS011;46318;52.716;6.444;2022-09-09T05:53:42;11.65;;;10.35;;
60472;SDS011;46318;52.716;6.444;2022-09-09T05:56:10;11.10;;;9.98;;
60472;SDS011;46318;52.716;6.444;2022-09-09T05:58:39;10.88;;;9.13;;
60472;SDS011;46318;52.716;6.444;2022-09-09T06:01:15;10.95;;;9.88;;
60472;SDS011;46318;52.716;6.444;2022-09-09T06:03:46;10.48;;;9.48;;
60472;SDS011;46318;52.716;6.444;2022-09-09T06:06:14;11.25;;;10.13;;
60472;SDS011;46318;52.716;6.444;2022-09-09T06:08:51;11.60;;;10.35;;
60472;SDS011;46318;52.716;6.444;2022-09-09T06:11:22;11.55;;;10.38;;
60472;SDS011;46318;52.716;6.444;2022-09-09T06:13:51;10.73;;;9.75;;
60472;SDS011;46318;52.716;6.444;2022-09-09T06:16:20;10.02;;;9.00;;
60472;SDS011;46318;52.716;6.444;2022-09-09T06:18:49;11.77;;;10.57;;
60472;SDS011;46318;52.716;6.444;2022-09-09T06:21:19;10.27;;;9.30;;
60472;SDS011;46318;52.716;6.444;2022-09-09T06:23:50;13.05;;;10.80;;
60472;SDS011;46318;52.716;6.444;2022-09-09T06:28:52;12.00;;;9.68;;
60472;SDS011;46318;52.716;6.444;2022-09-09T06:31:23;11.65;;;10.18;;
60472;SDS011;46318;52.716;6.444;2022-09-09T06:33:51;10.32;;;9.30;;
60472;SDS011;46318;52.716;6.444;2022-09-09T06:36:23;11.38;;;10.27;;
60472;SDS011;46318;52.716;6.444;2022-09-09T06:39:02;11.48;;;9.93;;
60472;SDS011;46318;52.716;6.444;2022-09-09T06:41:29;13.35;;;9.75;;
60472;SDS011;46318;52.716;6.444;2022-09-09T06:43:58;11.23;;;10.02;;
60472;SDS011;46318;52.716;6.444;2022-09-09T06:46:25;9.77;;;8.75;;
60472;SDS011;46318;52.716;6.444;2022-09-09T06:48:53;10.18;;;9.18;;
60472;SDS011;46318;52.716;6.444;2022-09-09T06:51:21;11.48;;;9.77;;
60472;SDS011;46318;52.716;6.444;2022-09-09T06:53:52;10.55;;;9.27;;
60472;SDS011;46318;52.716;6.444;2022-09-09T06:58:58;10.88;;;9.73;;
60472;SDS011;46318;52.716;6.444;2022-09-09T07:01:29;11.65;;;9.15;;
60472;SDS011;46318;52.716;6.444;2022-09-09T07:04:01;13.43;;;9.52;;
60472;SDS011;46318;52.716;6.444;2022-09-09T07:06:32;10.05;;;9.02;;
60472;SDS011;46318;52.716;6.444;2022-09-09T07:11:32;11.18;;;9.68;;
60472;SDS011;46318;52.716;6.444;2022-09-09T07:14:07;12.25;;;8.80;;
60472;SDS011;46318;52.716;6.444;2022-09-09T07:16:34;9.27;;;8.38;;
60472;SDS011;46318;52.716;6.444;2022-09-09T07:19:02;10.07;;;8.82;;
60472;SDS011;46318;52.716;6.444;2022-09-09T07:21:29;11.00;;;9.20;;
60472;SDS011;46318;52.716;6.444;2022-09-09T07:23:56;10.27;;;8.35;;
60472;SDS011;46318;52.716;6.444;2022-09-09T07:26:24;9.68;;;8.63;;
60472;SDS011;46318;52.716;6.444;2022-09-09T07:28:52;8.88;;;7.75;;
60472;SDS011;46318;52.716;6.444;2022-09-09T07:31:21;9.65;;;8.70;;
60472;SDS011;46318;52.716;6.444;2022-09-09T07:33:55;10.57;;;8.75;;
60472;SDS011;46318;52.716;6.444;2022-09-09T07:36:22;11.02;;;8.82;;
60472;SDS011;46318;52.716;6.444;2022-09-09T07:39:04;9.93;;;8.45;;
60472;SDS011;46318;52.716;6.444;2022-09-09T07:41:37;9.63;;;8.70;;
60472;SDS011;46318;52.716;6.444;2022-09-09T07:44:07;9.80;;;8.15;;
60472;SDS011;46318;52.716;6.444;2022-09-09T07:46:42;12.38;;;8.60;;
60472;SDS011;46318;52.716;6.444;2022-09-09T07:49:08;11.07;;;8.45;;
60472;SDS011;46318;52.716;6.444;2022-09-09T07:51:36;10.35;;;7.85;;
60472;SDS011;46318;52.716;6.444;2022-09-09T07:54:10;10.48;;;7.60;;
60472;SDS011;46318;52.716;6.444;2022-09-09T07:56:38;10.00;;;7.45;;
60472;SDS011;46318;52.716;6.444;2022-09-09T07:59:05;8.93;;;6.78;;
60472;SDS011;46318;52.716;6.444;2022-09-09T08:01:33;10.07;;;7.20;;
60472;SDS011;46318;52.716;6.444;2022-09-09T08:04:10;8.32;;;7.25;;
60472;SDS011;46318;52.716;6.444;2022-09-09T08:06:41;11.18;;;7.05;;
60472;SDS011;46318;52.716;6.444;2022-09-09T08:09:11;9.52;;;6.80;;
60472;SDS011;46318;52.716;6.444;2022-09-09T08:11:37;10.82;;;6.82;;
60472;SDS011;46318;52.716;6.444;2022-09-09T08:14:06;10.57;;;6.20;;
60472;SDS011;46318;52.716;6.444;2022-09-09T08:16:33;8.07;;;6.30;;
60472;SDS011;46318;52.716;6.444;2022-09-09T08:19:03;9.85;;;6.70;;
60472;SDS011;46318;52.716;6.444;2022-09-09T08:21:31;8.90;;;5.47;;
60472;SDS011;46318;52.716;6.444;2022-09-09T08:23:59;8.23;;;5.70;;
60472;SDS011;46318;52.716;6.444;2022-09-09T08:26:30;11.18;;;5.35;;
60472;SDS011;46318;52.716;6.444;2022-09-09T08:29:03;11.07;;;5.43;;
60472;SDS011;46318;52.716;6.444;2022-09-09T08:31:38;7.30;;;4.88;;
60472;SDS011;46318;52.716;6.444;2022-09-09T08:34:07;8.40;;;4.95;;
60472;SDS011;46318;52.716;6.444;2022-09-09T08:36:41;11.80;;;5.25;;
60472;SDS011;46318;52.716;6.444;2022-09-09T08:39:10;9.65;;;5.00;;
60472;SDS011;46318;52.716;6.444;2022-09-09T08:50:42;7.00;;;4.75;;
60472;SDS011;46318;52.716;6.444;2022-09-09T08:55:47;7.13;;;4.55;;
60472;SDS011;46318;52.716;6.444;2022-09-09T09:10:59;8.07;;;3.85;;
60472;SDS011;46318;52.716;6.444;2022-09-09T09:13:25;5.85;;;3.63;;
60472;SDS011;46318;52.716;6.444;2022-09-09T09:16:22;8.55;;;3.92;;
60472;SDS011;46318;52.716;6.444;2022-09-09T09:18:57;8.32;;;4.07;;
60472;SDS011;46318;52.716;6.444;2022-09-09T09:21:35;7.85;;;3.78;;
60472;SDS011;46318;52.716;6.444;2022-09-09T09:24:31;7.80;;;4.07;;
60472;SDS011;46318;52.716;6.444;2022-09-09T09:30:26;8.50;;;3.08;;
60472;SDS011;46318;52.716;6.444;2022-09-09T09:33:02;9.63;;;4.10;;
60472;SDS011;46318;52.716;6.444;2022-09-09T09:35:52;8.20;;;2.95;;
60472;SDS011;46318;52.716;6.444;2022-09-09T09:38:25;6.43;;;2.85;;
60472;SDS011;46318;52.716;6.444;2022-09-09T09:40:54;7.85;;;3.10;;
60472;SDS011;46318;52.716;6.444;2022-09-09T09:43:29;8.82;;;3.28;;
60472;SDS011;46318;52.716;6.444;2022-09-09T09:46:03;9.13;;;2.95;;
60472;SDS011;46318;52.716;6.444;2022-09-09T09:48:30;9.18;;;3.28;;
60472;SDS011;46318;52.716;6.444;2022-09-09T09:50:59;8.05;;;2.92;;
60472;SDS011;46318;52.716;6.444;2022-09-09T09:53:35;7.25;;;3.20;;
60472;SDS011;46318;52.716;6.444;2022-09-09T10:03:53;6.82;;;2.40;;
60472;SDS011;46318;52.716;6.444;2022-09-09T10:06:55;6.28;;;2.65;;
60472;SDS011;46318;52.716;6.444;2022-09-09T10:09:32;5.72;;;2.22;;
60472;SDS011;46318;52.716;6.444;2022-09-09T10:12:04;8.13;;;2.70;;
60472;SDS011;46318;52.716;6.444;2022-09-09T10:17:54;6.57;;;2.13;;
60472;SDS011;46318;52.716;6.444;2022-09-09T10:20:54;6.20;;;2.30;;
60472;SDS011;46318;52.716;6.444;2022-09-09T10:30:03;8.55;;;2.90;;
60472;SDS011;46318;52.716;6.444;2022-09-09T10:32:45;8.52;;;2.40;;
60472;SDS011;46318;52.716;6.444;2022-09-09T10:35:34;8.27;;;2.33;;
60472;SDS011;46318;52.716;6.444;2022-09-09T10:55:33;5.25;;;2.10;;
60472;SDS011;46318;52.716;6.444;2022-09-09T10:58:05;5.28;;;1.90;;
60472;SDS011;46318;52.716;6.444;2022-09-09T11:03:22;8.45;;;2.58;;
60472;SDS011;46318;52.716;6.444;2022-09-09T11:05:53;8.23;;;2.13;;
60472;SDS011;46318;52.716;6.444;2022-09-09T11:08:29;8.10;;;2.10;;
60472;SDS011;46318;52.716;6.444;2022-09-09T11:11:02;4.68;;;2.13;;
60472;SDS011;46318;52.716;6.444;2022-09-09T11:22:27;5.72;;;2.30;;
60472;SDS011;46318;52.716;6.444;2022-09-09T11:25:08;5.75;;;1.98;;
60472;SDS011;46318;52.716;6.444;2022-09-09T11:31:41;9.82;;;2.20;;
60472;SDS011;46318;52.716;6.444;2022-09-09T11:42:40;7.03;;;2.38;;
60472;SDS011;46318;52.716;6.444;2022-09-09T11:45:08;4.80;;;2.10;;
60472;SDS011;46318;52.716;6.444;2022-09-09T11:47:51;7.93;;;2.42;;
60472;SDS011;46318;52.716;6.444;2022-09-09T11:50:29;7.93;;;2.30;;
60472;SDS011;46318;52.716;6.444;2022-09-09T11:53:31;7.00;;;2.25;;
60472;SDS011;46318;52.716;6.444;2022-09-09T11:56:03;6.18;;;2.08;;
60472;SDS011;46318;52.716;6.444;2022-09-09T11:58:38;6.55;;;2.22;;
60472;SDS011;46318;52.716;6.444;2022-09-09T12:01:14;5.57;;;2.22;;
60472;SDS011;46318;52.716;6.444;2022-09-09T12:03:55;4.65;;;2.05;;
60472;SDS011;46318;52.716;6.444;2022-09-09T12:06:43;6.63;;;2.28;;
60472;SDS011;46318;52.716;6.444;2022-09-09T12:09:16;5.10;;;2.03;;
60472;SDS011;46318;52.716;6.444;2022-09-09T12:11:52;6.60;;;2.50;;
60472;SDS011;46318;52.716;6.444;2022-09-09T12:17:22;4.30;;;1.50;;
60472;SDS011;46318;52.716;6.444;2022-09-09T12:31:43;3.15;;;1.55;;
60472;SDS011;46318;52.716;6.444;2022-09-09T12:34:46;8.15;;;2.10;;
60472;SDS011;46318;52.716;6.444;2022-09-09T12:37:29;2.10;;;1.45;;
60472;SDS011;46318;52.716;6.444;2022-09-09T12:40:02;5.97;;;1.85;;
60472;SDS011;46318;52.716;6.444;2022-09-09T12:42:31;7.07;;;2.08;;
60472;SDS011;46318;52.716;6.444;2022-09-09T12:45:03;3.65;;;1.70;;
60472;SDS011;46318;52.716;6.444;2022-09-09T12:47:45;5.07;;;1.90;;
60472;SDS011;46318;52.716;6.444;2022-09-09T12:50:21;6.28;;;1.70;;
60472;SDS011;46318;52.716;6.444;2022-09-09T12:55:50;5.10;;;1.52;;
60472;SDS011;46318;52.716;6.444;2022-09-09T12:58:45;2.88;;;1.48;;
60472;SDS011;46318;52.716;6.444;2022-09-09T13:01:23;4.88;;;1.77;;
60472;SDS011;46318;52.716;6.444;2022-09-09T13:03:55;3.50;;;1.80;;
60472;SDS011;46318;52.716;6.444;2022-09-09T13:06:31;4.90;;;1.55;;
60472;SDS011;46318;52.716;6.444;2022-09-09T13:08:59;4.57;;;1.67;;
60472;SDS011;46318;52.716;6.444;2022-09-09T13:13:58;3.92;;;1.85;;
60472;SDS011;46318;52.716;6.444;2022-09-09T13:19:00;4.85;;;1.52;;
60472;SDS011;46318;52.716;6.444;2022-09-09T13:21:36;5.00;;;1.42;;
60472;SDS011;46318;52.716;6.444;2022-09-09T13:24:04;2.97;;;1.13;;
60472;SDS011;46318;52.716;6.444;2022-09-09T13:26:32;3.30;;;1.20;;
60472;SDS011;46318;52.716;6.444;2022-09-09T13:29:14;2.58;;;1.35;;
60472;SDS011;46318;52.716;6.444;2022-09-09T13:31:43;4.22;;;1.40;;
60472;SDS011;46318;52.716;6.444;2022-09-09T13:34:10;2.58;;;1.30;;
60472;SDS011;46318;52.716;6.444;2022-09-09T13:37:01;3.22;;;1.60;;
60472;SDS011;46318;52.716;6.444;2022-09-09T13:39:36;4.18;;;2.10;;
60472;SDS011;46318;52.716;6.444;2022-09-09T13:42:03;4.35;;;1.75;;
60472;SDS011;46318;52.716;6.444;2022-09-09T13:44:39;6.63;;;1.90;;
60472;SDS011;46318;52.716;6.444;2022-09-09T13:49:46;3.90;;;1.55;;
60472;SDS011;46318;52.716;6.444;2022-09-09T13:52:16;2.58;;;1.45;;
60472;SDS011;46318;52.716;6.444;2022-09-09T13:57:24;2.03;;;1.20;;
60472;SDS011;46318;52.716;6.444;2022-09-09T13:59:51;2.88;;;1.20;;
60472;SDS011;46318;52.716;6.444;2022-09-09T14:02:19;2.75;;;1.05;;
60472;SDS011;46318;52.716;6.444;2022-09-09T14:04:51;3.17;;;1.30;;
60472;SDS011;46318;52.716;6.444;2022-09-09T14:07:20;3.38;;;1.13;;
60472;SDS011;46318;52.716;6.444;2022-09-09T14:09:49;2.50;;;1.30;;
60472;SDS011;46318;52.716;6.444;2022-09-09T14:12:16;4.57;;;1.30;;
60472;SDS011;46318;52.716;6.444;2022-09-09T14:14:46;2.35;;;1.10;;
60472;SDS011;46318;52.716;6.444;2022-09-09T14:17:11;2.10;;;0.98;;
60472;SDS011;46318;52.716;6.444;2022-09-09T14:19:37;1.73;;;1.00;;
60472;SDS011;46318;52.716;6.444;2022-09-09T14:22:03;1.70;;;1.17;;
60472;SDS011;46318;52.716;6.444;2022-09-09T14:24:29;3.33;;;1.27;;
60472;SDS011;46318;52.716;6.444;2022-09-09T14:26:54;2.17;;;1.10;;
60472;SDS011;46318;52.716;6.444;2022-09-09T14:29:20;1.60;;;0.90;;
60472;SDS011;46318;52.716;6.444;2022-09-09T14:31:49;2.40;;;1.10;;
60472;SDS011;46318;52.716;6.444;2022-09-09T14:34:14;3.63;;;1.25;;
60472;SDS011;46318;52.716;6.444;2022-09-09T14:36:40;2.67;;;1.10;;
60472;SDS011;46318;52.716;6.444;2022-09-09T14:39:06;2.42;;;1.08;;
60472;SDS011;46318;52.716;6.444;2022-09-09T14:41:32;2.38;;;1.33;;
60472;SDS011;46318;52.716;6.444;2022-09-09T14:43:58;2.67;;;1.20;;
60472;SDS011;46318;52.716;6.444;2022-09-09T14:46:24;4.07;;;1.30;;
60472;SDS011;46318;52.716;6.444;2022-09-09T14:48:51;3.63;;;0.90;;
60472;SDS011;46318;52.716;6.444;2022-09-09T14:51:21;4.40;;;1.20;;
60472;SDS011;46318;52.716;6.444;2022-09-09T14:53:52;3.70;;;1.10;;
60472;SDS011;46318;52.716;6.444;2022-09-09T14:56:28;2.22;;;1.25;;
60472;SDS011;46318;52.716;6.444;2022-09-09T14:58:57;2.75;;;1.00;;
60472;SDS011;46318;52.716;6.444;2022-09-09T15:01:26;3.90;;;1.58;;
60472;SDS011;46318;52.716;6.444;2022-09-09T15:03:55;1.42;;;0.90;;
60472;SDS011;46318;52.716;6.444;2022-09-09T15:06:27;3.08;;;1.10;;
60472;SDS011;46318;52.716;6.444;2022-09-09T15:08:58;2.42;;;1.38;;
60472;SDS011;46318;52.716;6.444;2022-09-09T15:11:26;2.38;;;1.10;;
60472;SDS011;46318;52.716;6.444;2022-09-09T15:13:55;2.20;;;1.10;;
60472;SDS011;46318;52.716;6.444;2022-09-09T15:16:23;1.52;;;1.02;;
60472;SDS011;46318;52.716;6.444;2022-09-09T15:18:53;2.90;;;1.20;;
60472;SDS011;46318;52.716;6.444;2022-09-09T15:21:24;3.60;;;1.30;;
60472;SDS011;46318;52.716;6.444;2022-09-09T15:23:53;3.05;;;1.30;;
60472;SDS011;46318;52.716;6.444;2022-09-09T15:26:20;2.22;;;1.45;;
60472;SDS011;46318;52.716;6.444;2022-09-09T15:28:46;2.47;;;1.35;;
60472;SDS011;46318;52.716;6.444;2022-09-09T15:31:20;2.75;;;1.33;;
60472;SDS011;46318;52.716;6.444;2022-09-09T15:33:49;3.38;;;1.40;;
60472;SDS011;46318;52.716;6.444;2022-09-09T15:36:18;2.65;;;1.70;;
60472;SDS011;46318;52.716;6.444;2022-09-09T15:38:52;2.35;;;1.25;;
60472;SDS011;46318;52.716;6.444;2022-09-09T15:41:18;2.15;;;1.67;;
60472;SDS011;46318;52.716;6.444;2022-09-09T15:43:46;4.50;;;1.50;;
60472;SDS011;46318;52.716;6.444;2022-09-09T15:46:34;2.85;;;1.88;;
60472;SDS011;46318;52.716;6.444;2022-09-09T15:49:12;2.88;;;1.50;;
60472;SDS011;46318;52.716;6.444;2022-09-09T15:51:47;3.45;;;1.42;;
60472;SDS011;46318;52.716;6.444;2022-09-09T15:54:22;4.05;;;1.50;;
60472;SDS011;46318;52.716;6.444;2022-09-09T15:56:50;3.33;;;1.60;;
60472;SDS011;46318;52.716;6.444;2022-09-09T15:59:22;3.35;;;1.98;;
60472;SDS011;46318;52.716;6.444;2022-09-09T16:01:49;3.55;;;1.27;;
60472;SDS011;46318;52.716;6.444;2022-09-09T16:04:17;3.58;;;1.60;;
60472;SDS011;46318;52.716;6.444;2022-09-09T16:06:51;3.42;;;1.60;;
60472;SDS011;46318;52.716;6.444;2022-09-09T16:09:30;2.63;;;1.80;;
60472;SDS011;46318;52.716;6.444;2022-09-09T16:11:57;3.33;;;1.73;;
60472;SDS011;46318;52.716;6.444;2022-09-09T16:14:26;3.00;;;1.75;;
60472;SDS011;46318;52.716;6.444;2022-09-09T16:16:52;4.47;;;2.08;;
60472;SDS011;46318;52.716;6.444;2022-09-09T16:19:18;4.82;;;1.70;;
60472;SDS011;46318;52.716;6.444;2022-09-09T16:21:45;2.40;;;1.85;;
60472;SDS011;46318;52.716;6.444;2022-09-09T16:24:16;4.00;;;1.95;;
60472;SDS011;46318;52.716;6.444;2022-09-09T16:26:45;5.15;;;2.10;;
60472;SDS011;46318;52.716;6.444;2022-09-09T16:29:14;4.57;;;2.00;;
60472;SDS011;46318;52.716;6.444;2022-09-09T16:31:42;4.50;;;1.70;;
60472;SDS011;46318;52.716;6.444;2022-09-09T16:34:12;5.20;;;1.85;;
60472;SDS011;46318;52.716;6.444;2022-09-09T16:36:40;5.90;;;2.90;;
60472;SDS011;46318;52.716;6.444;2022-09-09T16:39:14;4.63;;;3.08;;
60472;SDS011;46318;52.716;6.444;2022-09-09T16:41:43;5.68;;;2.95;;
60472;SDS011;46318;52.716;6.444;2022-09-09T16:44:11;4.97;;;2.65;;
60472;SDS011;46318;52.716;6.444;2022-09-09T16:46:41;4.32;;;2.22;;
60472;SDS011;46318;52.716;6.444;2022-09-09T16:49:09;3.75;;;2.15;;
60472;SDS011;46318;52.716;6.444;2022-09-09T16:51:38;5.90;;;3.03;;
60472;SDS011;46318;52.716;6.444;2022-09-09T16:54:07;3.75;;;2.20;;
60472;SDS011;46318;52.716;6.444;2022-09-09T16:56:36;2.72;;;1.67;;
60472;SDS011;46318;52.716;6.444;2022-09-09T16:59:07;2.60;;;2.17;;
60472;SDS011;46318;52.716;6.444;2022-09-09T17:01:44;2.42;;;1.70;;
60472;SDS011;46318;52.716;6.444;2022-09-09T17:04:13;4.60;;;1.92;;
60472;SDS011;46318;52.716;6.444;2022-09-09T17:06:52;2.95;;;1.70;;
60472;SDS011;46318;52.716;6.444;2022-09-09T17:09:19;3.85;;;1.60;;
60472;SDS011;46318;52.716;6.444;2022-09-09T17:11:47;5.88;;;1.75;;
60472;SDS011;46318;52.716;6.444;2022-09-09T17:14:16;2.92;;;2.08;;
60472;SDS011;46318;52.716;6.444;2022-09-09T17:16:44;3.45;;;1.60;;
60472;SDS011;46318;52.716;6.444;2022-09-09T17:19:10;3.88;;;1.70;;
60472;SDS011;46318;52.716;6.444;2022-09-09T17:21:37;2.40;;;1.60;;
60472;SDS011;46318;52.716;6.444;2022-09-09T17:24:03;3.50;;;1.77;;
60472;SDS011;46318;52.716;6.444;2022-09-09T17:26:30;3.40;;;1.83;;
60472;SDS011;46318;52.716;6.444;2022-09-09T17:28:58;4.25;;;1.85;;
60472;SDS011;46318;52.716;6.444;2022-09-09T17:31:26;3.05;;;1.85;;
60472;SDS011;46318;52.716;6.444;2022-09-09T17:33:53;4.03;;;2.38;;
60472;SDS011;46318;52.716;6.444;2022-09-09T17:36:24;3.67;;;2.20;;
60472;SDS011;46318;52.716;6.444;2022-09-09T17:38:53;7.60;;;2.13;;
60472;SDS011;46318;52.716;6.444;2022-09-09T17:41:21;5.22;;;2.28;;
60472;SDS011;46318;52.716;6.444;2022-09-09T17:43:49;3.72;;;1.95;;
60472;SDS011;46318;52.716;6.444;2022-09-09T17:46:17;3.70;;;1.90;;
60472;SDS011;46318;52.716;6.444;2022-09-09T17:48:46;6.75;;;2.20;;
60472;SDS011;46318;52.716;6.444;2022-09-09T17:51:16;5.05;;;2.15;;
60472;SDS011;46318;52.716;6.444;2022-09-09T17:53:52;3.33;;;2.30;;
60472;SDS011;46318;52.716;6.444;2022-09-09T17:56:23;3.97;;;3.10;;
60472;SDS011;46318;52.716;6.444;2022-09-09T17:58:51;4.63;;;3.00;;
60472;SDS011;46318;52.716;6.444;2022-09-09T18:01:25;3.92;;;2.80;;
60472;SDS011;46318;52.716;6.444;2022-09-09T18:03:55;4.20;;;3.10;;
60472;SDS011;46318;52.716;6.444;2022-09-09T18:06:26;5.60;;;2.92;;
60472;SDS011;46318;52.716;6.444;2022-09-09T18:08:58;9.45;;;2.90;;
60472;SDS011;46318;52.716;6.444;2022-09-09T18:11:30;6.00;;;3.33;;
60472;SDS011;46318;52.716;6.444;2022-09-09T18:14:00;5.13;;;2.88;;
60472;SDS011;46318;52.716;6.444;2022-09-09T18:16:28;8.68;;;7.03;;
60472;SDS011;46318;52.716;6.444;2022-09-09T18:19:00;5.40;;;3.55;;
60472;SDS011;46318;52.716;6.444;2022-09-09T18:21:29;5.32;;;2.75;;